»·PEaware :: N808ES KFAT-KMRY

N808ES :: KFAT-KMRY

FLIGHT INFORMATION

Flight Status: Arrived
Operator: Privately registered:
United States
More flights under this callsign
Pilot: Donavan P. (36313)
Aircraft: CESSNA 172 SKYHAWK
(C172)
More flights by this aircraft type
Origin: KFAT Fresno Yosemite Intl
United States
Destination: KMRY Monterey Peninsula
United States
More flights between these airports :: More routes between these airports
Route: FRA V230 SNS
File this flight plan on PilotEdge
Remarks: BULL3.NTELL
Altitude:
(Current/Filed)
7,600ft
Speed:
(Current/Filed)
95kts
Departed: 09-Sep-21 05:28 PM
Arrived: 09-Sep-21 06:50 PM
Distance/Time
Traveled:
103nm/1:22
Distance/Time
To Go:
Arrived

Flight Plot

Page will automatically refresh every two minutes.

Flight plan parsing failed; only flown route is shown


Map Options




Map Legend


Flown Route
Filed Route
Departure Airport
Arrival Airport
Navaid (VOR, NDB)
Fix

Horizontal Profiles

Position Reports

Time Latitude Longitude Heading Altitude Ground
Speed
09-Sep-21 16:50 36.777246 -119.729094 216 329ft 0kts
09-Sep-21 16:51 36.777246 -119.729094 216 329ft 0kts
09-Sep-21 16:52 36.777246 -119.729094 216 329ft 0kts
09-Sep-21 16:53 36.777246 -119.729094 216 329ft 0kts
09-Sep-21 16:54 36.777246 -119.729094 216 329ft 0kts
09-Sep-21 16:55 36.777246 -119.729094 216 329ft 0kts
09-Sep-21 16:56 36.777246 -119.729094 216 329ft 0kts
09-Sep-21 16:57 36.777246 -119.729094 216 329ft 0kts
09-Sep-21 16:58 36.777246 -119.729094 216 329ft 0kts
09-Sep-21 16:59 36.777246 -119.729094 216 329ft 0kts
09-Sep-21 17:00 36.777246 -119.729094 216 329ft 0kts
09-Sep-21 17:02 36.777246 -119.729094 216 329ft 0kts
09-Sep-21 17:03 36.777246 -119.729094 216 329ft 0kts
09-Sep-21 17:04 36.777246 -119.729094 216 329ft 0kts
09-Sep-21 17:05 36.777246 -119.729094 216 329ft 0kts
09-Sep-21 17:06 36.777246 -119.729094 216 329ft 0kts
09-Sep-21 17:07 36.777246 -119.729094 216 329ft 0kts
09-Sep-21 17:08 36.777246 -119.729094 216 329ft 0kts
09-Sep-21 17:09 36.777246 -119.729094 216 329ft 0kts
09-Sep-21 17:10 36.777246 -119.729094 216 329ft 0kts
09-Sep-21 17:11 36.777246 -119.729094 216 329ft 0kts
09-Sep-21 17:12 36.777246 -119.729094 216 329ft 0kts
09-Sep-21 17:13 36.777246 -119.729094 216 329ft 0kts
09-Sep-21 17:14 36.777246 -119.729094 216 329ft 0kts
09-Sep-21 17:15 36.777246 -119.729094 216 329ft 0kts
09-Sep-21 17:16 36.777246 -119.729094 216 329ft 0kts
09-Sep-21 17:17 36.777246 -119.729094 216 329ft 0kts
09-Sep-21 17:18 36.777246 -119.729094 216 329ft 0kts
09-Sep-21 17:19 36.777246 -119.729094 216 329ft 0kts
09-Sep-21 17:20 36.777246 -119.729094 216 329ft 0kts
09-Sep-21 17:21 36.777246 -119.729094 216 329ft 0kts
09-Sep-21 17:22 36.777561 -119.729612 356 329ft 9kts
09-Sep-21 17:23 36.778630 -119.727174 124 331ft 21kts
09-Sep-21 17:24 36.774131 -119.719368 125 329ft 29kts
09-Sep-21 17:25 36.769886 -119.711846 110 328ft 26kts
09-Sep-21 17:26 36.769981 -119.711048 37 329ft 0kts
09-Sep-21 17:26 36.769981 -119.711048 37 329ft 0kts
09-Sep-21 17:28 36.773153 -119.714991 305 365ft 76kts
09-Sep-21 17:29 36.785502 -119.737098 305 1523ft 79kts
09-Sep-21 17:30 36.790722 -119.745576 306 1956ft 80kts
09-Sep-21 17:31 36.792369 -119.748205 312 2096ft 79kts
09-Sep-21 17:31 36.809070 -119.757875 345 2988ft 80kts
09-Sep-21 17:32 36.829895 -119.768498 330 3968ft 84kts
09-Sep-21 17:33 36.849611 -119.783695 334 4917ft 84kts
09-Sep-21 17:35 36.859760 -119.791883 320 5383ft 84kts
09-Sep-21 17:36 36.859760 -119.791883 320 5383ft 84kts
09-Sep-21 17:36 36.859760 -119.791883 320 5383ft 84kts
09-Sep-21 17:37 36.859760 -119.791883 320 5383ft 84kts
09-Sep-21 17:38 36.859760 -119.791883 320 5383ft 84kts
09-Sep-21 17:39 36.859760 -119.791883 320 5383ft 84kts
09-Sep-21 17:40 36.875666 -119.811201 305 6161ft 87kts
09-Sep-21 17:41 36.883043 -119.837859 274 6918ft 88kts
09-Sep-21 17:42 36.881442 -119.854514 255 7322ft 89kts
09-Sep-21 17:43 36.883273 -119.885416 281 7846ft 90kts
09-Sep-21 17:44 36.890098 -119.916629 287 8006ft 96kts
09-Sep-21 17:45 36.900117 -119.947577 298 8083ft 98kts
09-Sep-21 17:46 36.901362 -119.978893 235 8033ft 97kts
09-Sep-21 17:47 36.889114 -120.007465 241 7879ft 85kts
09-Sep-21 17:48 36.881549 -120.030312 237 7807ft 62kts
09-Sep-21 17:49 36.876296 -120.036459 215 7652ft 58kts
09-Sep-21 17:50 36.871812 -120.043598 244 7498ft 59kts
09-Sep-21 17:51 36.866795 -120.053907 249 7333ft 58kts
09-Sep-21 17:52 36.865443 -120.057443 244 7281ft 60kts
09-Sep-21 17:53 36.865443 -120.057443 244 7281ft 60kts
09-Sep-21 17:54 36.858108 -120.075692 248 7149ft 65kts
09-Sep-21 17:55 36.852332 -120.096859 251 7350ft 66kts
09-Sep-21 17:56 36.847000 -120.118573 249 7773ft 64kts
09-Sep-21 17:57 36.840777 -120.141377 256 8106ft 84kts
09-Sep-21 17:58 36.830997 -120.177292 252 7983ft 118kts
09-Sep-21 17:59 36.824629 -120.195758 245 8023ft 114kts
09-Sep-21 18:00 36.812465 -120.231935 249 8013ft 113kts
09-Sep-21 18:01 36.805869 -120.269848 263 8003ft 113kts
09-Sep-21 18:02 36.801119 -120.308418 263 7994ft 113kts
09-Sep-21 18:03 36.800344 -120.319962 268 7992ft 113kts
09-Sep-21 18:04 36.795151 -120.358445 262 7984ft 112kts
09-Sep-21 18:05 36.789497 -120.397078 260 7962ft 113kts
09-Sep-21 18:06 36.784010 -120.435221 256 7983ft 112kts
09-Sep-21 18:07 36.779708 -120.473537 253 7996ft 111kts
09-Sep-21 18:08 36.772645 -120.511481 261 8005ft 110kts
09-Sep-21 18:09 36.761553 -120.547731 249 7998ft 111kts
09-Sep-21 18:10 36.752878 -120.584705 258 7998ft 112kts
09-Sep-21 18:11 36.744933 -120.622318 257 7998ft 112kts
09-Sep-21 18:12 36.734555 -120.677930 256 7998ft 112kts
09-Sep-21 18:13 36.725864 -120.724936 257 7998ft 112kts
09-Sep-21 18:14 36.718905 -120.762879 257 7998ft 112kts
09-Sep-21 18:15 36.714399 -120.801294 265 7998ft 112kts
09-Sep-21 18:16 36.711847 -120.840020 265 7998ft 112kts
09-Sep-21 18:17 36.709343 -120.878929 266 7998ft 112kts
09-Sep-21 18:18 36.707202 -120.917718 269 8005ft 112kts
09-Sep-21 18:19 36.705963 -120.956257 265 8004ft 112kts
09-Sep-21 18:20 36.703587 -120.995043 265 8004ft 112kts
09-Sep-21 18:21 36.701261 -121.033770 265 8004ft 112kts
09-Sep-21 18:22 36.699423 -121.064895 265 8004ft 112kts
09-Sep-21 18:23 36.699423 -121.064895 265 8004ft 112kts
09-Sep-21 18:24 36.699423 -121.064895 265 8004ft 112kts
09-Sep-21 18:25 36.699080 -121.070677 266 8004ft 112kts
09-Sep-21 18:26 36.692767 -121.108394 249 7680ft 109kts
09-Sep-21 18:27 36.684785 -121.145729 254 6662ft 109kts
09-Sep-21 18:28 36.676300 -121.182037 255 5700ft 109kts
09-Sep-21 18:29 36.667225 -121.218195 250 5094ft 109kts
09-Sep-21 18:30 36.657576 -121.252659 251 5123ft 104kts
09-Sep-21 18:31 36.650098 -121.287475 260 5121ft 104kts
09-Sep-21 18:32 36.643352 -121.322547 253 5121ft 104kts
09-Sep-21 18:33 36.636400 -121.357413 257 5127ft 103kts
09-Sep-21 18:34 36.627792 -121.391691 253 5131ft 103kts
09-Sep-21 18:35 36.619276 -121.426086 256 5137ft 103kts
09-Sep-21 18:36 36.610380 -121.460214 257 5141ft 103kts
09-Sep-21 18:37 36.601622 -121.494309 256 5143ft 104kts
09-Sep-21 18:38 36.594243 -121.528920 247 5148ft 104kts
09-Sep-21 18:39 36.582952 -121.561607 249 5154ft 103kts
09-Sep-21 18:40 36.573164 -121.595313 248 4394ft 105kts
09-Sep-21 18:41 36.563454 -121.627562 265 4099ft 95kts
09-Sep-21 18:42 36.566088 -121.657715 279 3485ft 101kts
09-Sep-21 18:43 36.568985 -121.683331 276 3263ft 97kts
09-Sep-21 18:44 36.571047 -121.717753 268 2203ft 100kts
09-Sep-21 18:45 36.574047 -121.751739 275 1815ft 96kts
09-Sep-21 18:46 36.576570 -121.782384 272 1278ft 87kts
09-Sep-21 18:47 36.579502 -121.813146 275 653ft 88kts
09-Sep-21 18:48 36.584088 -121.835682 294 263ft 63kts
09-Sep-21 18:49 36.585162 -121.841335 197 231ft 0kts
09-Sep-21 18:50 36.586059 -121.844455 289 207ft 24kts

Navigation Log

Ident Type
Flight plan parsing failed, navigation log unavailable